Time;durP1;ratioP1;P1;durP2;ratioP2;P2;SDS_P1;SDS_P2;PMS_P1;PMS_P2;Temp;Humidity;BMP_temperature;BMP_pressure;BME280_temperature;BME280_humidity;BME280_pressure;Samples;Min_cycle;Max_cycle;Signal;HPM_P1;HPM_P2
2023/04/20 00:01:22;;;;;;;1.33;1.30;;;;;;;;;;6352974;28;20297;-92
2023/04/20 00:04:28;;;;;;;1.53;1.20;;;;;;;;;;6352441;28;20296;-90
2023/04/20 00:07:34;;;;;;;1.20;1.20;;;;;;;;;;6353592;28;20300;-93
2023/04/20 00:10:40;;;;;;;3.10;1.20;;;;;;;;;;6345318;28;20297;-93
2023/04/20 00:13:48;;;;;;;1.47;1.20;;;;;;;;;;6348363;28;20322;-92
2023/04/20 00:16:53;;;;;;;7.07;1.27;;;;;;;;;;6349204;28;20297;-92
2023/04/20 00:19:59;;;;;;;1.10;1.10;;;;;;;;;;6348626;28;20297;-92
2023/04/20 00:23:05;;;;;;;1.83;1.70;;;;;;;;;;6348682;28;20296;-93
2023/04/20 00:26:10;;;;;;;1.00;1.00;;;;;;;;;;6348441;28;20287;-91
2023/04/20 00:29:19;;;;;;;3.57;1.40;;;;;;;;;;6349046;28;20308;-94
2023/04/20 00:32:27;;;;;;;1.70;1.00;;;;;;;;;;6355104;28;20276;-91
2023/04/20 00:35:33;;;;;;;1.50;1.20;;;;;;;;;;6338641;28;20300;-92
2023/04/20 00:38:39;;;;;;;1.10;1.10;;;;;;;;;;6348260;28;20304;-92
2023/04/20 00:41:45;;;;;;;1.20;1.20;;;;;;;;;;6332814;28;20304;-93
2023/04/20 00:44:52;;;;;;;1.83;1.47;;;;;;;;;;6353143;28;20305;-92
2023/04/20 00:47:59;;;;;;;1.43;1.00;;;;;;;;;;6351446;28;20305;-91
2023/04/20 00:51:05;;;;;;;1.13;1.00;;;;;;;;;;6341222;28;20305;-91
2023/04/20 00:54:13;;;;;;;1.10;1.03;;;;;;;;;;6357243;28;20325;-91
2023/04/20 00:57:22;;;;;;;4.07;1.27;;;;;;;;;;6356741;28;20371;-91
2023/04/20 01:00:30;;;;;;;2.83;1.20;;;;;;;;;;6351994;28;20293;-92
2023/04/20 01:03:36;;;;;;;1.60;1.10;;;;;;;;;;6358092;22;20296;-74
2023/04/20 01:06:42;;;;;;;1.20;1.07;;;;;;;;;;6372716;28;20273;-73
2023/04/20 01:09:47;;;;;;;3.63;1.10;;;;;;;;;;6366268;27;20301;-73
2023/04/20 01:12:52;;;;;;;2.53;1.20;;;;;;;;;;6354178;28;20295;-73
2023/04/20 01:16:00;;;;;;;1.20;1.20;;;;;;;;;;6371998;27;20288;-73
2023/04/20 01:19:05;;;;;;;1.80;1.10;;;;;;;;;;6352713;28;20288;-73
2023/04/20 01:22:16;;;;;;;1.00;1.00;;;;;;;;;;6371280;27;20300;-73
2023/04/20 01:25:22;;;;;;;2.83;1.30;;;;;;;;;;6353541;28;20575;-73
2023/04/20 01:28:27;;;;;;;6.70;1.60;;;;;;;;;;6371103;27;20300;-73
2023/04/20 01:31:32;;;;;;;10.70;1.97;;;;;;;;;;6348785;28;20288;-73
2023/04/20 01:34:38;;;;;;;11.57;1.83;;;;;;;;;;6369024;27;20292;-73
2023/04/20 01:37:45;;;;;;;1.63;1.10;;;;;;;;;;6368916;27;20295;-74
2023/04/20 01:40:50;;;;;;;13.60;1.80;;;;;;;;;;6351452;28;20292;-72
2023/04/20 01:43:57;;;;;;;2.63;1.10;;;;;;;;;;6370958;27;20291;-73
2023/04/20 01:47:02;;;;;;;1.60;1.40;;;;;;;;;;6351867;28;20307;-72
2023/04/20 01:50:08;;;;;;;1.47;1.37;;;;;;;;;;6351827;28;20283;-73
2023/04/20 01:53:15;;;;;;;1.30;1.30;;;;;;;;;;6368012;27;20470;-74
2023/04/20 01:56:23;;;;;;;4.10;1.30;;;;;;;;;;6368231;28;20296;-74
2023/04/20 01:59:28;;;;;;;1.03;1.03;;;;;;;;;;6349834;28;20296;-74
2023/04/20 02:02:34;;;;;;;1.90;1.13;;;;;;;;;;6350047;28;20308;-74
2023/04/20 02:05:39;;;;;;;3.37;1.20;;;;;;;;;;6366504;28;20300;-74
2023/04/20 02:08:46;;;;;;;1.90;1.20;;;;;;;;;;6368249;28;20299;-74
2023/04/20 02:11:51;;;;;;;1.10;1.10;;;;;;;;;;6366965;28;20276;-74
2023/04/20 02:14:56;;;;;;;1.50;1.43;;;;;;;;;;6367285;28;20365;-73
2023/04/20 02:18:02;;;;;;;5.40;1.40;;;;;;;;;;6366973;28;20288;-73
2023/04/20 02:21:07;;;;;;;3.20;1.20;;;;;;;;;;6349357;28;20291;-73
2023/04/20 02:24:14;;;;;;;1.23;1.10;;;;;;;;;;6345229;28;20292;-74
2023/04/20 02:27:19;;;;;;;1.10;1.10;;;;;;;;;;6348693;28;20295;-73
2023/04/20 02:30:24;;;;;;;2.83;1.27;;;;;;;;;;6349680;28;20292;-73
2023/04/20 02:33:29;;;;;;;1.80;1.40;;;;;;;;;;6348911;28;20292;-73
2023/04/20 02:36:34;;;;;;;1.70;1.30;;;;;;;;;;6366421;28;20266;-74
2023/04/20 02:39:43;;;;;;;2.50;1.20;;;;;;;;;;6346381;27;20302;-73
2023/04/20 02:42:48;;;;;;;2.20;1.23;;;;;;;;;;6367952;28;20264;-73
2023/04/20 02:45:53;;;;;;;1.10;1.10;;;;;;;;;;6343644;28;20283;-72
2023/04/20 02:48:59;;;;;;;1.10;1.10;;;;;;;;;;6341678;27;20443;-73
2023/04/20 02:52:07;;;;;;;1.27;1.27;;;;;;;;;;6325875;28;20288;-73
2023/04/20 02:55:14;;;;;;;1.17;1.17;;;;;;;;;;6341552;27;20291;-74
2023/04/20 02:58:25;;;;;;;1.43;1.33;;;;;;;;;;6341628;28;20296;-75
2023/04/20 03:01:59;;;;;;;2.00;1.20;;;;;;;;;;6349838;28;20420;-74
2023/04/20 03:05:06;;;;;;;1.37;1.37;;;;;;;;;;6324500;28;20403;-73
2023/04/20 03:08:19;;;;;;;1.30;1.30;;;;;;;;;;6317691;28;20296;-74
2023/04/20 03:11:27;;;;;;;1.30;1.30;;;;;;;;;;6328121;28;20570;-74
2023/04/20 03:14:33;;;;;;;1.17;1.17;;;;;;;;;;6316392;28;20312;-73
2023/04/20 03:17:39;;;;;;;1.30;1.20;;;;;;;;;;6315327;28;20300;-74
2023/04/20 03:20:44;;;;;;;1.20;1.20;;;;;;;;;;6336677;28;20296;-74
2023/04/20 03:23:49;;;;;;;1.20;1.20;;;;;;;;;;6340162;28;20322;-73
2023/04/20 03:26:56;;;;;;;2.17;1.20;;;;;;;;;;6340851;28;20295;-74
2023/04/20 03:30:14;;;;;;;1.50;1.40;;;;;;;;;;6340478;28;20291;-74
2023/04/20 03:33:21;;;;;;;4.10;1.33;;;;;;;;;;6344317;28;20420;-73
2023/04/20 03:36:28;;;;;;;1.40;1.40;;;;;;;;;;6336127;28;20290;-73
2023/04/20 03:39:34;;;;;;;1.17;1.17;;;;;;;;;;6318629;28;20305;-74
2023/04/20 03:42:42;;;;;;;5.20;1.50;;;;;;;;;;6319416;28;20292;-73
2023/04/20 03:45:48;;;;;;;1.47;1.47;;;;;;;;;;6320128;28;20559;-73
2023/04/20 03:48:54;;;;;;;2.77;1.37;;;;;;;;;;6319467;28;20288;-73
2023/04/20 03:52:00;;;;;;;2.03;1.20;;;;;;;;;;6320303;28;20303;-74
2023/04/20 03:55:06;;;;;;;2.00;1.20;;;;;;;;;;6339908;28;20295;-72
2023/04/20 03:58:16;;;;;;;6.67;1.33;;;;;;;;;;6319023;28;20295;-73
2023/04/20 04:01:53;;;;;;;2.53;1.23;;;;;;;;;;6323354;28;20297;-75
2023/04/20 04:04:58;;;;;;;3.57;1.50;;;;;;;;;;6337095;28;20290;-74
2023/04/20 04:08:04;;;;;;;3.90;1.60;;;;;;;;;;6343869;28;20294;-75
2023/04/20 04:11:09;;;;;;;2.17;1.50;;;;;;;;;;6344255;28;20290;-74
2023/04/20 04:14:16;;;;;;;1.93;1.70;;;;;;;;;;6344354;28;20486;-74
2023/04/20 04:17:21;;;;;;;1.37;1.37;;;;;;;;;;6345212;28;20291;-73
2023/04/20 04:20:28;;;;;;;2.43;1.50;;;;;;;;;;6326822;28;20303;-74
2023/04/20 04:23:33;;;;;;;2.70;1.70;;;;;;;;;;6343995;28;20295;-74
2023/04/20 04:26:48;;;;;;;1.37;1.37;;;;;;;;;;6362933;28;20287;-74
2023/04/20 04:29:56;;;;;;;1.63;1.53;;;;;;;;;;6343719;28;20292;-75
2023/04/20 04:33:03;;;;;;;4.13;1.30;;;;;;;;;;6343635;27;20295;-73
2023/04/20 04:36:14;;;;;;;1.20;1.20;;;;;;;;;;6344126;28;20304;-74
2023/04/20 04:39:19;;;;;;;4.37;1.33;;;;;;;;;;6343487;28;20294;-73
2023/04/20 04:42:36;;;;;;;6.50;1.60;;;;;;;;;;6341889;27;20271;-73
2023/04/20 04:45:46;;;;;;;3.03;1.57;;;;;;;;;;6344092;28;20295;-73
2023/04/20 04:48:51;;;;;;;2.13;1.80;;;;;;;;;;6343611;27;20295;-73
2023/04/20 04:51:56;;;;;;;4.37;1.77;;;;;;;;;;6362003;28;20284;-73
2023/04/20 04:55:02;;;;;;;3.10;1.67;;;;;;;;;;6361188;27;20303;-74
2023/04/20 04:58:11;;;;;;;1.27;1.27;;;;;;;;;;6361755;28;20296;-74
2023/04/20 05:01:18;;;;;;;1.50;1.50;;;;;;;;;;6361677;27;20299;-74
2023/04/20 05:04:24;;;;;;;2.70;2.00;;;;;;;;;;6343616;28;20540;-74
2023/04/20 05:07:29;;;;;;;2.53;1.60;;;;;;;;;;6342591;28;20292;-74
2023/04/20 05:10:35;;;;;;;2.30;1.70;;;;;;;;;;6361339;28;20298;-74
2023/04/20 05:13:40;;;;;;;8.50;1.53;;;;;;;;;;6360136;27;20300;-74
2023/04/20 05:16:47;;;;;;;2.90;1.30;;;;;;;;;;6361360;28;20300;-75
2023/04/20 05:19:52;;;;;;;1.50;1.40;;;;;;;;;;6360388;27;20482;-74
2023/04/20 05:22:57;;;;;;;4.30;1.60;;;;;;;;;;6360669;28;20594;-74
2023/04/20 05:26:02;;;;;;;2.50;1.47;;;;;;;;;;6361342;28;20539;-74
2023/04/20 05:29:07;;;;;;;4.80;1.30;;;;;;;;;;6360388;28;20475;-74
2023/04/20 05:32:14;;;;;;;10.60;1.67;;;;;;;;;;6360687;28;20451;-73
2023/04/20 05:35:19;;;;;;;4.87;1.47;;;;;;;;;;6360871;28;20326;-74
2023/04/20 05:38:24;;;;;;;2.43;1.60;;;;;;;;;;6360343;28;20384;-73
2023/04/20 05:41:29;;;;;;;3.50;1.60;;;;;;;;;;6360572;28;20319;-74
2023/04/20 05:44:35;;;;;;;4.13;2.30;;;;;;;;;;6359904;28;20292;-74
2023/04/20 05:47:41;;;;;;;2.13;1.50;;;;;;;;;;6359654;28;20295;-74
2023/04/20 05:50:47;;;;;;;5.50;1.50;;;;;;;;;;6360533;28;20308;-73
2023/04/20 05:53:52;;;;;;;3.57;1.67;;;;;;;;;;6358789;28;20300;-73
2023/04/20 05:56:57;;;;;;;1.50;1.50;;;;;;;;;;6360319;28;20285;-73
2023/04/20 06:00:03;;;;;;;2.37;1.70;;;;;;;;;;6360115;27;20335;-75
2023/04/20 06:03:17;;;;;;;13.10;1.80;;;;;;;;;;6358589;28;20320;-73
2023/04/20 06:06:23;;;;;;;6.40;1.60;;;;;;;;;;6360192;28;20309;-73
2023/04/20 06:09:29;;;;;;;1.60;1.57;;;;;;;;;;6359323;27;20300;-74
2023/04/20 06:12:35;;;;;;;2.43;1.43;;;;;;;;;;6358043;27;20273;-74
2023/04/20 06:15:40;;;;;;;1.93;1.43;;;;;;;;;;6360155;27;20293;-74
2023/04/20 06:18:47;;;;;;;3.53;1.40;;;;;;;;;;6359761;27;20288;-73
2023/04/20 06:21:52;;;;;;;8.73;1.80;;;;;;;;;;6359818;28;23068;-72
2023/04/20 06:24:57;;;;;;;4.90;1.40;;;;;;;;;;6359463;27;20296;-73
2023/04/20 06:28:03;;;;;;;8.23;1.70;;;;;;;;;;6359469;27;20280;-74
2023/04/20 06:31:09;;;;;;;8.68;2.17;;;;;;;;;;6359975;28;20289;-74
2023/04/20 06:34:16;;;;;;;5.90;1.40;;;;;;;;;;6359329;27;20293;-73
2023/04/20 06:37:21;;;;;;;2.58;1.58;;;;;;;;;;6359804;28;20288;-73
2023/04/20 06:40:28;;;;;;;4.07;1.48;;;;;;;;;;6358758;27;20391;-73
2023/04/20 06:43:33;;;;;;;6.70;1.63;;;;;;;;;;6359357;28;20296;-73
2023/04/20 06:46:38;;;;;;;15.45;1.88;;;;;;;;;;6359868;28;20301;-73
2023/04/20 06:49:45;;;;;;;12.55;1.60;;;;;;;;;;6359166;27;20292;-72
2023/04/20 06:52:50;;;;;;;8.23;1.67;;;;;;;;;;6358878;27;20307;-72
2023/04/20 06:55:55;;;;;;;6.30;1.70;;;;;;;;;;6359609;27;20300;-73
2023/04/20 06:59:01;;;;;;;2.70;1.38;;;;;;;;;;6359096;28;20456;-73
2023/04/20 07:02:06;;;;;;;10.10;1.42;;;;;;;;;;6359515;28;20300;-73
2023/04/20 07:05:16;;;;;;;3.53;1.52;;;;;;;;;;6338678;28;20316;-73
2023/04/20 07:08:21;;;;;;;7.90;1.55;;;;;;;;;;6339192;28;20293;-74
2023/04/20 07:11:26;;;;;;;6.82;1.45;;;;;;;;;;6322157;28;20590;-75
2023/04/20 07:14:31;;;;;;;4.95;1.85;;;;;;;;;;6339037;28;20297;-73
2023/04/20 07:17:36;;;;;;;7.68;1.95;;;;;;;;;;6339300;28;20580;-73
2023/04/20 07:20:43;;;;;;;7.93;1.40;;;;;;;;;;6340264;28;20297;-73
2023/04/20 07:23:49;;;;;;;6.97;1.48;;;;;;;;;;6324576;28;20298;-74
2023/04/20 07:26:54;;;;;;;1.65;1.40;;;;;;;;;;6315773;28;20602;-74
2023/04/20 07:29:59;;;;;;;6.93;1.70;;;;;;;;;;6315271;28;20295;-73
2023/04/20 07:33:05;;;;;;;12.70;1.60;;;;;;;;;;6314155;28;20307;-73
2023/04/20 07:36:12;;;;;;;4.43;1.40;;;;;;;;;;6317090;28;20306;-74
2023/04/20 07:39:17;;;;;;;6.28;1.48;;;;;;;;;;6315705;28;20475;-75
2023/04/20 07:42:23;;;;;;;3.75;1.60;;;;;;;;;;6316199;28;20307;-74
2023/04/20 07:45:28;;;;;;;4.78;1.30;;;;;;;;;;6314354;28;20303;-74
2023/04/20 07:48:34;;;;;;;10.82;1.58;;;;;;;;;;6314272;28;20302;-75
2023/04/20 07:51:41;;;;;;;2.83;1.70;;;;;;;;;;6314457;28;20294;-74
2023/04/20 07:54:46;;;;;;;4.97;1.65;;;;;;;;;;6322928;28;20602;-74
2023/04/20 07:57:51;;;;;;;7.50;1.55;;;;;;;;;;6326209;28;20321;-73
2023/04/20 08:00:57;;;;;;;4.15;1.60;;;;;;;;;;6309482;28;20319;-74
2023/04/20 08:04:02;;;;;;;5.38;1.60;;;;;;;;;;6336608;28;20249;-74
2023/04/20 08:07:09;;;;;;;5.03;1.63;;;;;;;;;;6352643;28;20242;-73
2023/04/20 08:10:14;;;;;;;10.10;2.13;;;;;;;;;;6356928;27;20312;-73
2023/04/20 08:13:19;;;;;;;6.85;1.52;;;;;;;;;;6376861;28;20281;-73
2023/04/20 08:16:24;;;;;;;4.90;1.50;;;;;;;;;;6376923;27;20245;-73
2023/04/20 08:19:30;;;;;;;2.88;1.40;;;;;;;;;;6357050;28;20378;-73
2023/04/20 08:22:38;;;;;;;4.03;1.40;;;;;;;;;;6374049;27;20305;-74
2023/04/20 08:25:43;;;;;;;6.47;1.40;;;;;;;;;;6375344;28;20257;-74
2023/04/20 08:28:48;;;;;;;1.40;1.30;;;;;;;;;;6375500;28;20347;-73
2023/04/20 08:31:53;;;;;;;5.78;1.17;;;;;;;;;;6373010;28;20253;-74
2023/04/20 08:34:58;;;;;;;2.13;1.33;;;;;;;;;;6366771;27;20296;-74
2023/04/20 08:38:05;;;;;;;5.82;1.10;;;;;;;;;;6372408;27;20285;-73
2023/04/20 08:41:12;;;;;;;1.98;1.20;;;;;;;;;;6374145;28;20356;-73
2023/04/20 08:44:17;;;;;;;1.15;1.00;;;;;;;;;;6373948;28;20241;-73
2023/04/20 08:47:22;;;;;;;1.20;1.20;;;;;;;;;;6373911;28;20281;-74
2023/04/20 08:50:27;;;;;;;1.42;1.10;;;;;;;;;;6372667;28;20293;-74
2023/04/20 08:53:34;;;;;;;2.08;1.00;;;;;;;;;;6370200;27;20285;-73
2023/04/20 08:56:41;;;;;;;0.90;0.90;;;;;;;;;;6367164;28;20285;-73
2023/04/20 08:59:46;;;;;;;0.93;0.93;;;;;;;;;;6370511;27;20364;-74
2023/04/20 09:02:52;;;;;;;5.80;1.70;;;;;;;;;;6369162;28;20608;-75
2023/04/20 09:05:57;;;;;;;6.13;1.30;;;;;;;;;;6345724;28;20331;-75
2023/04/20 09:09:11;;;;;;;2.58;1.60;;;;;;;;;;6344649;28;20290;-74
2023/04/20 09:12:16;;;;;;;1.02;1.02;;;;;;;;;;6343672;28;20289;-74
2023/04/20 09:15:28;;;;;;;5.45;1.20;;;;;;;;;;6344514;28;20289;-74
2023/04/20 09:18:33;;;;;;;1.00;1.00;;;;;;;;;;6341167;28;20432;-75
2023/04/20 09:21:38;;;;;;;1.35;0.95;;;;;;;;;;6342321;28;20282;-74
2023/04/20 09:24:45;;;;;;;2.17;1.20;;;;;;;;;;6344318;28;20305;-74
2023/04/20 09:27:57;;;;;;;1.55;1.30;;;;;;;;;;6344116;28;20282;-74
2023/04/20 09:31:02;;;;;;;1.92;1.10;;;;;;;;;;6344642;28;20282;-74
2023/04/20 09:34:08;;;;;;;1.23;0.90;;;;;;;;;;6344507;28;20245;-73
2023/04/20 09:37:16;;;;;;;1.63;1.00;;;;;;;;;;6345941;28;20314;-73
2023/04/20 09:40:24;;;;;;;1.05;1.05;;;;;;;;;;6346642;28;20290;-74
2023/04/20 09:43:30;;;;;;;2.78;1.00;;;;;;;;;;6342710;28;20302;-72
2023/04/20 09:46:37;;;;;;;1.20;1.15;;;;;;;;;;6341023;28;20290;-73
2023/04/20 09:49:45;;;;;;;0.98;0.98;;;;;;;;;;6343237;28;20468;-73
2023/04/20 09:52:51;;;;;;;1.10;1.10;;;;;;;;;;6343679;28;20289;-73
2023/04/20 09:55:59;;;;;;;1.10;1.10;;;;;;;;;;6342966;28;20546;-74
2023/04/20 09:59:04;;;;;;;1.50;1.10;;;;;;;;;;6324758;28;20289;-74
2023/04/20 10:02:12;;;;;;;2.00;1.00;;;;;;;;;;6326116;28;20594;-74
2023/04/20 10:05:17;;;;;;;1.15;1.15;;;;;;;;;;6342101;28;20290;-73
2023/04/20 10:08:23;;;;;;;1.10;1.10;;;;;;;;;;6337209;28;20293;-74
2023/04/20 10:11:31;;;;;;;2.65;1.60;;;;;;;;;;6337803;28;20274;-74
2023/04/20 10:14:56;;;;;;;3.70;1.17;;;;;;;;;;6322290;28;20294;-74
2023/04/20 10:18:01;;;;;;;1.17;1.17;;;;;;;;;;6338709;28;20461;-74
2023/04/20 10:21:10;;;;;;;1.10;1.10;;;;;;;;;;6339957;28;20294;-73
2023/04/20 10:24:16;;;;;;;2.90;1.10;;;;;;;;;;6304880;28;20294;-73
2023/04/20 10:27:25;;;;;;;4.18;1.10;;;;;;;;;;6337955;28;20298;-73
2023/04/20 10:30:31;;;;;;;2.78;1.20;;;;;;;;;;6320464;28;20293;-73
2023/04/20 10:33:36;;;;;;;2.03;1.30;;;;;;;;;;6336831;28;20570;-73
2023/04/20 10:36:41;;;;;;;2.92;1.30;;;;;;;;;;6338824;28;20454;-74
2023/04/20 10:39:47;;;;;;;4.07;1.10;;;;;;;;;;6340879;28;20295;-73
2023/04/20 10:42:58;;;;;;;4.65;1.10;;;;;;;;;;6329521;28;20365;-74
2023/04/20 10:46:16;;;;;;;2.58;1.20;;;;;;;;;;6337639;28;20297;-73
2023/04/20 10:49:27;;;;;;;4.03;1.20;;;;;;;;;;6338131;28;20294;-73
2023/04/20 10:52:35;;;;;;;4.40;1.20;;;;;;;;;;6320467;28;20242;-73
2023/04/20 10:55:40;;;;;;;6.60;1.10;;;;;;;;;;6337914;28;20310;-73
2023/04/20 10:58:48;;;;;;;5.38;1.40;;;;;;;;;;6335530;28;20313;-73
2023/04/20 11:01:54;;;;;;;7.50;1.30;;;;;;;;;;6337425;28;20298;-73
2023/04/20 11:05:00;;;;;;;3.05;1.20;;;;;;;;;;6336870;28;20285;-74
2023/04/20 11:08:06;;;;;;;6.18;1.48;;;;;;;;;;6335197;28;20577;-73
2023/04/20 11:11:23;;;;;;;6.43;1.00;;;;;;;;;;6317732;28;20313;-74
2023/04/20 11:14:30;;;;;;;3.55;1.17;;;;;;;;;;6334437;28;20601;-72
2023/04/20 11:17:38;;;;;;;7.07;1.42;;;;;;;;;;6333527;28;20297;-73
2023/04/20 11:20:51;;;;;;;7.70;1.33;;;;;;;;;;6333771;28;20286;-73
2023/04/20 11:23:57;;;;;;;17.08;2.58;;;;;;;;;;6333120;28;20297;-75
2023/04/20 11:27:03;;;;;;;5.55;1.63;;;;;;;;;;6333140;28;20290;-74
2023/04/20 11:30:13;;;;;;;5.82;1.55;;;;;;;;;;6333045;28;20301;-73
2023/04/20 11:33:27;;;;;;;4.43;1.40;;;;;;;;;;6332582;28;20290;-73
2023/04/20 11:36:33;;;;;;;2.75;1.50;;;;;;;;;;6332392;28;20286;-74
2023/04/20 11:39:38;;;;;;;8.15;1.70;;;;;;;;;;6332727;28;20297;-72
2023/04/20 11:42:43;;;;;;;7.28;1.60;;;;;;;;;;6332557;28;20298;-73
2023/04/20 11:45:50;;;;;;;1.52;1.30;;;;;;;;;;6333042;28;20266;-73
2023/04/20 11:48:58;;;;;;;2.45;1.50;;;;;;;;;;6333088;28;20528;-73
2023/04/20 11:52:04;;;;;;;6.03;1.50;;;;;;;;;;6333723;28;20461;-73
2023/04/20 11:55:10;;;;;;;2.55;1.48;;;;;;;;;;6337309;28;20297;-73
2023/04/20 11:58:15;;;;;;;4.72;1.95;;;;;;;;;;6337616;28;20289;-73
2023/04/20 12:01:22;;;;;;;11.80;1.65;;;;;;;;;;6319385;28;20508;-73
2023/04/20 12:04:27;;;;;;;7.65;1.55;;;;;;;;;;6336975;28;20294;-72
2023/04/20 12:07:32;;;;;;;6.35;1.50;;;;;;;;;;6336761;28;20373;-73
2023/04/20 12:10:38;;;;;;;10.52;1.48;;;;;;;;;;6337427;28;20377;-73
2023/04/20 12:13:44;;;;;;;7.80;1.55;;;;;;;;;;6336368;28;20302;-73
2023/04/20 12:16:50;;;;;;;10.05;1.50;;;;;;;;;;6337603;28;20285;-73
2023/04/20 12:19:56;;;;;;;13.55;1.83;;;;;;;;;;6336959;28;20293;-73
2023/04/20 12:23:02;;;;;;;9.60;1.25;;;;;;;;;;6336382;28;20309;-73
2023/04/20 12:26:07;;;;;;;11.15;1.70;;;;;;;;;;6337222;28;20294;-73
2023/04/20 12:29:12;;;;;;;3.80;1.40;;;;;;;;;;6336415;28;20301;-72
2023/04/20 12:32:19;;;;;;;16.40;1.92;;;;;;;;;;6337469;28;20298;-73
2023/04/20 12:35:24;;;;;;;12.55;2.22;;;;;;;;;;6336333;28;20297;-73
2023/04/20 12:38:29;;;;;;;6.30;1.58;;;;;;;;;;6336353;28;20297;-73
2023/04/20 12:41:35;;;;;;;9.23;1.40;;;;;;;;;;6336970;28;20297;-73
2023/04/20 12:44:40;;;;;;;7.35;1.38;;;;;;;;;;6335996;28;20302;-72
2023/04/20 12:47:46;;;;;;;6.10;1.40;;;;;;;;;;6336518;28;20286;-73
2023/04/20 12:50:51;;;;;;;15.10;1.55;;;;;;;;;;6337126;28;20293;-74
2023/04/20 12:53:56;;;;;;;4.10;1.40;;;;;;;;;;6336379;28;20297;-74
2023/04/20 12:57:02;;;;;;;6.93;1.20;;;;;;;;;;6336464;28;20294;-73
2023/04/20 13:00:08;;;;;;;11.45;1.27;;;;;;;;;;6336311;28;20550;-73
2023/04/20 13:03:16;;;;;;;3.30;1.10;;;;;;;;;;6317443;28;20290;-73
2023/04/20 13:06:21;;;;;;;10.65;1.50;;;;;;;;;;6336370;28;20290;-74
2023/04/20 13:09:27;;;;;;;6.22;1.23;;;;;;;;;;6335240;28;20373;-73
2023/04/20 13:12:32;;;;;;;5.40;1.40;;;;;;;;;;6322982;28;20294;-74
2023/04/20 13:15:37;;;;;;;4.25;1.27;;;;;;;;;;6335147;28;20538;-74
2023/04/20 13:18:45;;;;;;;3.97;1.55;;;;;;;;;;6335516;28;20377;-74
2023/04/20 13:21:50;;;;;;;6.97;1.70;;;;;;;;;;6335565;28;20270;-73
2023/04/20 13:24:55;;;;;;;3.55;1.15;;;;;;;;;;6335006;28;20586;-74
2023/04/20 13:28:01;;;;;;;10.05;1.23;;;;;;;;;;6334915;28;20473;-72
2023/04/20 13:31:06;;;;;;;4.72;1.20;;;;;;;;;;6335643;28;20281;-72
2023/04/20 13:34:13;;;;;;;20.25;1.60;;;;;;;;;;6334663;28;20314;-71
2023/04/20 13:37:18;;;;;;;6.93;1.05;;;;;;;;;;6335575;28;20285;-71
2023/04/20 13:40:24;;;;;;;6.38;1.27;;;;;;;;;;6335237;28;20290;-71
2023/04/20 13:43:29;;;;;;;5.60;1.20;;;;;;;;;;6334353;28;20293;-72
2023/04/20 13:46:34;;;;;;;8.48;1.25;;;;;;;;;;6334847;28;20289;-72
2023/04/20 13:49:41;;;;;;;15.35;1.70;;;;;;;;;;6334266;28;20286;-72
2023/04/20 13:52:46;;;;;;;3.80;1.13;;;;;;;;;;6334441;28;20294;-72
2023/04/20 13:55:51;;;;;;;4.05;0.93;;;;;;;;;;6334912;28;20301;-72
2023/04/20 13:58:56;;;;;;;1.13;1.00;;;;;;;;;;6334390;28;20474;-72
2023/04/20 14:02:01;;;;;;;10.18;1.63;;;;;;;;;;6334841;28;20286;-72
2023/04/20 14:05:09;;;;;;;3.45;0.93;;;;;;;;;;6353261;28;20440;-72
2023/04/20 14:08:14;;;;;;;3.47;1.10;;;;;;;;;;6359508;28;20299;-72
2023/04/20 14:11:20;;;;;;;13.05;1.23;;;;;;;;;;6359747;28;20293;-73
2023/04/20 14:14:25;;;;;;;9.05;1.13;;;;;;;;;;6359237;28;20584;-72
2023/04/20 14:17:30;;;;;;;5.93;1.30;;;;;;;;;;6358802;28;20292;-73
2023/04/20 14:20:37;;;;;;;10.55;1.27;;;;;;;;;;6360105;28;20284;-73
2023/04/20 14:23:42;;;;;;;11.90;1.75;;;;;;;;;;6359211;28;20296;-72
2023/04/20 14:26:47;;;;;;;4.13;1.38;;;;;;;;;;6359665;28;20297;-71
2023/04/20 14:29:52;;;;;;;4.28;1.10;;;;;;;;;;6341021;28;20289;-72
2023/04/20 14:32:58;;;;;;;11.48;1.40;;;;;;;;;;6359234;27;20285;-74
2023/04/20 14:36:06;;;;;;;16.38;1.92;;;;;;;;;;6359734;28;20292;-73
2023/04/20 14:39:11;;;;;;;2.42;1.27;;;;;;;;;;6358649;28;20485;-73
2023/04/20 14:42:16;;;;;;;2.55;1.23;;;;;;;;;;6359810;28;20293;-73
2023/04/20 14:45:21;;;;;;;3.92;1.08;;;;;;;;;;6358572;28;20321;-73
2023/04/20 14:48:27;;;;;;;4.03;1.20;;;;;;;;;;6358663;28;20309;-72
2023/04/20 14:51:33;;;;;;;5.35;1.10;;;;;;;;;;6358715;28;20293;-72
2023/04/20 14:54:39;;;;;;;2.72;1.05;;;;;;;;;;6339900;27;20301;-72
2023/04/20 14:57:44;;;;;;;4.28;1.30;;;;;;;;;;6359274;27;20264;-73
2023/04/20 15:00:49;;;;;;;3.72;1.00;;;;;;;;;;6359308;27;20258;-73
2023/04/20 15:03:54;;;;;;;6.65;1.40;;;;;;;;;;6358754;28;20298;-73
2023/04/20 15:07:02;;;;;;;5.50;1.17;;;;;;;;;;6359126;28;20293;-73
2023/04/20 15:10:09;;;;;;;6.18;1.00;;;;;;;;;;6359236;27;20388;-73
2023/04/20 15:13:14;;;;;;;13.38;1.20;;;;;;;;;;6341696;27;20301;-73
2023/04/20 15:16:19;;;;;;;9.55;1.95;;;;;;;;;;6360604;27;20293;-75
2023/04/20 15:19:24;;;;;;;5.05;1.25;;;;;;;;;;6360077;27;20313;-74
2023/04/20 15:22:31;;;;;;;7.15;1.80;;;;;;;;;;6341041;27;20285;-74
2023/04/20 15:25:36;;;;;;;5.95;1.67;;;;;;;;;;6359699;28;20293;-73
2023/04/20 15:28:41;;;;;;;7.70;1.35;;;;;;;;;;6364502;28;20292;-73
2023/04/20 15:31:46;;;;;;;11.85;1.55;;;;;;;;;;6364669;28;20321;-74
2023/04/20 15:34:52;;;;;;;4.65;1.40;;;;;;;;;;6364680;27;20292;-73
2023/04/20 15:37:58;;;;;;;6.28;1.50;;;;;;;;;;6364569;28;20288;-74
2023/04/20 15:41:03;;;;;;;13.77;1.70;;;;;;;;;;6364990;28;20285;-73
2023/04/20 15:44:11;;;;;;;13.82;1.65;;;;;;;;;;6346323;28;20297;-74
2023/04/20 15:47:16;;;;;;;8.20;1.48;;;;;;;;;;6365376;28;20292;-73
2023/04/20 15:50:21;;;;;;;9.20;1.77;;;;;;;;;;6365200;27;20289;-72
2023/04/20 15:53:28;;;;;;;4.28;1.40;;;;;;;;;;6364471;27;20293;-73
2023/04/20 15:56:33;;;;;;;13.05;1.90;;;;;;;;;;6365161;28;20294;-74
2023/04/20 15:59:38;;;;;;;10.85;1.42;;;;;;;;;;6364262;27;20468;-72
2023/04/20 16:02:43;;;;;;;9.00;1.40;;;;;;;;;;6364267;28;20280;-73
2023/04/20 16:05:49;;;;;;;7.07;1.65;;;;;;;;;;6364663;28;20296;-73
2023/04/20 16:08:56;;;;;;;3.00;1.40;;;;;;;;;;6364878;28;20292;-73
2023/04/20 16:12:01;;;;;;;4.28;1.67;;;;;;;;;;6365204;28;20356;-73
2023/04/20 16:15:11;;;;;;;8.02;1.63;;;;;;;;;;6364958;28;20482;-73
2023/04/20 16:18:16;;;;;;;11.93;1.45;;;;;;;;;;6364428;28;20350;-73
2023/04/20 16:21:22;;;;;;;3.33;1.40;;;;;;;;;;6364392;28;20293;-73
2023/04/20 16:24:28;;;;;;;3.47;1.50;;;;;;;;;;6364624;28;20301;-73
2023/04/20 16:27:34;;;;;;;3.45;1.65;;;;;;;;;;6359484;28;20285;-72
2023/04/20 16:30:39;;;;;;;4.20;1.38;;;;;;;;;;6363982;28;20561;-73
2023/04/20 16:33:44;;;;;;;8.80;1.42;;;;;;;;;;6364062;27;20280;-73
2023/04/20 16:36:49;;;;;;;6.38;1.50;;;;;;;;;;6364034;28;20289;-73
2023/04/20 16:39:56;;;;;;;3.78;1.33;;;;;;;;;;6363934;27;20556;-70
2023/04/20 16:43:01;;;;;;;4.72;1.52;;;;;;;;;;6345390;27;20558;-72
2023/04/20 16:46:11;;;;;;;6.63;1.70;;;;;;;;;;6346014;28;20293;-73
2023/04/20 16:49:16;;;;;;;9.38;2.00;;;;;;;;;;6363353;27;20292;-73
2023/04/20 16:52:21;;;;;;;20.38;2.13;;;;;;;;;;6363661;28;20293;-73
2023/04/20 16:55:27;;;;;;;19.90;2.30;;;;;;;;;;6363931;27;20302;-72
2023/04/20 16:58:32;;;;;;;28.40;2.75;;;;;;;;;;6363466;28;20312;-72
2023/04/20 17:01:37;;;;;;;19.20;2.17;;;;;;;;;;6363630;28;20285;-73
2023/04/20 17:04:43;;;;;;;24.70;2.67;;;;;;;;;;6362149;28;20299;-72
2023/04/20 17:07:48;;;;;;;17.20;3.50;;;;;;;;;;6362495;28;20309;-72
2023/04/20 17:10:55;;;;;;;21.42;3.70;;;;;;;;;;6363321;28;20297;-73
2023/04/20 17:14:00;;;;;;;29.52;4.40;;;;;;;;;;6362809;28;20292;-72
2023/04/20 17:17:06;;;;;;;24.55;4.47;;;;;;;;;;6363132;28;20301;-74
2023/04/20 17:20:13;;;;;;;23.38;4.07;;;;;;;;;;6363912;28;20304;-73
2023/04/20 17:23:18;;;;;;;22.15;4.90;;;;;;;;;;6362181;28;20500;-73
2023/04/20 17:26:25;;;;;;;20.35;2.88;;;;;;;;;;6363072;28;20304;-75
2023/04/20 17:29:33;;;;;;;27.83;3.78;;;;;;;;;;6362471;28;20305;-75
2023/04/20 17:32:39;;;;;;;20.08;4.47;;;;;;;;;;6361951;28;20293;-72
2023/04/20 17:35:45;;;;;;;32.28;4.53;;;;;;;;;;6362695;28;20285;-75
2023/04/20 17:38:50;;;;;;;51.42;6.03;;;;;;;;;;6343207;28;20312;-73
2023/04/20 17:41:57;;;;;;;37.30;4.40;;;;;;;;;;6362241;28;20296;-74
2023/04/20 17:45:02;;;;;;;47.75;4.88;;;;;;;;;;6362692;27;20289;-74
2023/04/20 17:48:07;;;;;;;44.50;4.82;;;;;;;;;;6361535;27;20305;-74
2023/04/20 17:51:13;;;;;;;32.70;4.10;;;;;;;;;;6361092;28;20348;-73
2023/04/20 17:54:18;;;;;;;28.27;4.22;;;;;;;;;;6361659;27;20592;-73
2023/04/20 17:57:25;;;;;;;29.65;4.50;;;;;;;;;;6362917;28;20278;-74
2023/04/20 18:00:30;;;;;;;41.38;4.85;;;;;;;;;;6361496;27;20297;-74
2023/04/20 18:03:35;;;;;;;36.45;4.63;;;;;;;;;;6355085;28;20289;-75
2023/04/20 18:06:41;;;;;;;30.52;3.50;;;;;;;;;;6319520;28;20316;-74
2023/04/20 18:09:46;;;;;;;19.02;2.50;;;;;;;;;;6336630;28;20295;-75
2023/04/20 18:12:53;;;;;;;24.58;2.85;;;;;;;;;;6336184;28;20291;-75
2023/04/20 18:16:00;;;;;;;15.00;2.83;;;;;;;;;;6337328;28;20282;-74
2023/04/20 18:19:05;;;;;;;23.42;2.42;;;;;;;;;;6336354;28;20290;-73
2023/04/20 18:22:11;;;;;;;10.98;2.42;;;;;;;;;;6336063;28;20580;-74
2023/04/20 18:25:17;;;;;;;19.20;2.75;;;;;;;;;;6336140;28;20297;-74
2023/04/20 18:28:24;;;;;;;23.10;3.28;;;;;;;;;;6335824;28;20298;-74
2023/04/20 18:31:30;;;;;;;23.55;3.60;;;;;;;;;;6336352;28;20289;-74
2023/04/20 18:34:35;;;;;;;23.60;3.72;;;;;;;;;;6335564;28;20302;-74